sensor_id;sensor_type;location;lat;lon;timestamp;P1;durP1;ratioP1;P2;durP2;ratioP2
10851;SDS011;5479;52.046;6.314;2022-07-22T00:00:27;7.83;;;4.27;;
10851;SDS011;5479;52.046;6.314;2022-07-22T00:02:55;10.03;;;3.97;;
10851;SDS011;5479;52.046;6.314;2022-07-22T00:05:23;8.70;;;4.37;;
10851;SDS011;5479;52.046;6.314;2022-07-22T00:07:51;10.07;;;4.53;;
10851;SDS011;5479;52.046;6.314;2022-07-22T00:10:19;8.20;;;4.27;;
10851;SDS011;5479;52.046;6.314;2022-07-22T00:12:48;9.60;;;4.07;;
10851;SDS011;5479;52.046;6.314;2022-07-22T00:15:16;10.17;;;4.60;;
10851;SDS011;5479;52.046;6.314;2022-07-22T00:17:44;10.43;;;5.17;;
10851;SDS011;5479;52.046;6.314;2022-07-22T00:20:11;8.53;;;4.50;;
10851;SDS011;5479;52.046;6.314;2022-07-22T00:22:39;7.87;;;4.47;;
10851;SDS011;5479;52.046;6.314;2022-07-22T00:25:07;10.57;;;4.60;;
10851;SDS011;5479;52.046;6.314;2022-07-22T00:27:35;7.80;;;4.67;;
10851;SDS011;5479;52.046;6.314;2022-07-22T00:30:05;9.13;;;4.27;;
10851;SDS011;5479;52.046;6.314;2022-07-22T00:32:33;10.47;;;4.83;;
10851;SDS011;5479;52.046;6.314;2022-07-22T00:35:02;13.70;;;4.73;;
10851;SDS011;5479;52.046;6.314;2022-07-22T00:37:31;9.00;;;4.27;;
10851;SDS011;5479;52.046;6.314;2022-07-22T00:39:59;9.13;;;4.10;;
10851;SDS011;5479;52.046;6.314;2022-07-22T00:42:26;8.47;;;4.70;;
10851;SDS011;5479;52.046;6.314;2022-07-22T00:44:55;8.27;;;4.13;;
10851;SDS011;5479;52.046;6.314;2022-07-22T00:47:25;9.33;;;4.20;;
10851;SDS011;5479;52.046;6.314;2022-07-22T00:49:52;11.73;;;4.30;;
10851;SDS011;5479;52.046;6.314;2022-07-22T00:52:21;13.23;;;4.73;;
10851;SDS011;5479;52.046;6.314;2022-07-22T00:54:50;10.20;;;4.10;;
10851;SDS011;5479;52.046;6.314;2022-07-22T00:57:18;10.33;;;4.07;;
10851;SDS011;5479;52.046;6.314;2022-07-22T00:59:46;11.37;;;4.53;;
10851;SDS011;5479;52.046;6.314;2022-07-22T01:02:14;10.83;;;4.60;;
10851;SDS011;5479;52.046;6.314;2022-07-22T01:04:43;7.63;;;3.70;;
10851;SDS011;5479;52.046;6.314;2022-07-22T01:07:11;9.27;;;4.10;;
10851;SDS011;5479;52.046;6.314;2022-07-22T01:09:41;10.23;;;4.17;;
10851;SDS011;5479;52.046;6.314;2022-07-22T01:12:10;9.00;;;4.10;;
10851;SDS011;5479;52.046;6.314;2022-07-22T01:14:38;7.23;;;3.93;;
10851;SDS011;5479;52.046;6.314;2022-07-22T01:17:06;9.07;;;4.13;;
10851;SDS011;5479;52.046;6.314;2022-07-22T01:19:34;9.87;;;4.00;;
10851;SDS011;5479;52.046;6.314;2022-07-22T01:22:04;8.53;;;4.00;;
10851;SDS011;5479;52.046;6.314;2022-07-22T01:24:33;12.87;;;3.93;;
10851;SDS011;5479;52.046;6.314;2022-07-22T01:27:01;9.37;;;3.97;;
10851;SDS011;5479;52.046;6.314;2022-07-22T01:29:29;11.90;;;4.23;;
10851;SDS011;5479;52.046;6.314;2022-07-22T01:31:56;12.13;;;4.03;;
10851;SDS011;5479;52.046;6.314;2022-07-22T01:34:24;8.93;;;3.90;;
10851;SDS011;5479;52.046;6.314;2022-07-22T01:36:52;9.57;;;4.60;;
10851;SDS011;5479;52.046;6.314;2022-07-22T01:39:21;10.40;;;4.67;;
10851;SDS011;5479;52.046;6.314;2022-07-22T01:41:49;9.83;;;4.57;;
10851;SDS011;5479;52.046;6.314;2022-07-22T01:44:17;9.67;;;4.37;;
10851;SDS011;5479;52.046;6.314;2022-07-22T01:46:45;10.03;;;4.23;;
10851;SDS011;5479;52.046;6.314;2022-07-22T01:49:13;8.50;;;4.50;;
10851;SDS011;5479;52.046;6.314;2022-07-22T01:51:41;10.03;;;4.47;;
10851;SDS011;5479;52.046;6.314;2022-07-22T01:54:09;9.33;;;4.70;;
10851;SDS011;5479;52.046;6.314;2022-07-22T01:56:38;12.83;;;4.73;;
10851;SDS011;5479;52.046;6.314;2022-07-22T01:59:06;11.10;;;4.70;;
10851;SDS011;5479;52.046;6.314;2022-07-22T02:01:34;8.87;;;4.73;;
10851;SDS011;5479;52.046;6.314;2022-07-22T02:04:02;11.63;;;4.70;;
10851;SDS011;5479;52.046;6.314;2022-07-22T02:06:30;10.30;;;4.40;;
10851;SDS011;5479;52.046;6.314;2022-07-22T02:08:58;9.93;;;4.87;;
10851;SDS011;5479;52.046;6.314;2022-07-22T02:11:26;13.67;;;4.70;;
10851;SDS011;5479;52.046;6.314;2022-07-22T02:13:55;10.70;;;5.10;;
10851;SDS011;5479;52.046;6.314;2022-07-22T02:16:23;9.03;;;4.60;;
10851;SDS011;5479;52.046;6.314;2022-07-22T02:18:51;9.33;;;4.47;;
10851;SDS011;5479;52.046;6.314;2022-07-22T02:21:19;10.97;;;4.73;;
10851;SDS011;5479;52.046;6.314;2022-07-22T02:23:47;10.20;;;4.87;;
10851;SDS011;5479;52.046;6.314;2022-07-22T02:26:16;9.90;;;4.90;;
10851;SDS011;5479;52.046;6.314;2022-07-22T02:28:44;11.53;;;5.37;;
10851;SDS011;5479;52.046;6.314;2022-07-22T02:31:13;8.67;;;5.03;;
10851;SDS011;5479;52.046;6.314;2022-07-22T02:33:41;11.13;;;5.07;;
10851;SDS011;5479;52.046;6.314;2022-07-22T02:36:09;10.73;;;5.27;;
10851;SDS011;5479;52.046;6.314;2022-07-22T02:38:37;12.27;;;4.80;;
10851;SDS011;5479;52.046;6.314;2022-07-22T02:41:05;9.00;;;5.07;;
10851;SDS011;5479;52.046;6.314;2022-07-22T02:43:33;10.10;;;4.83;;
10851;SDS011;5479;52.046;6.314;2022-07-22T02:46:01;11.53;;;5.00;;
10851;SDS011;5479;52.046;6.314;2022-07-22T02:48:30;10.97;;;5.20;;
10851;SDS011;5479;52.046;6.314;2022-07-22T02:50:59;11.33;;;5.30;;
10851;SDS011;5479;52.046;6.314;2022-07-22T02:53:27;9.87;;;5.10;;
10851;SDS011;5479;52.046;6.314;2022-07-22T02:55:55;10.87;;;5.10;;
10851;SDS011;5479;52.046;6.314;2022-07-22T02:58:23;11.50;;;4.73;;
10851;SDS011;5479;52.046;6.314;2022-07-22T03:00:50;14.20;;;5.50;;
10851;SDS011;5479;52.046;6.314;2022-07-22T03:03:18;10.13;;;5.47;;
10851;SDS011;5479;52.046;6.314;2022-07-22T03:05:47;12.00;;;5.17;;
10851;SDS011;5479;52.046;6.314;2022-07-22T03:08:15;9.37;;;5.00;;
10851;SDS011;5479;52.046;6.314;2022-07-22T03:10:43;10.30;;;5.20;;
10851;SDS011;5479;52.046;6.314;2022-07-22T03:13:11;12.17;;;5.33;;
10851;SDS011;5479;52.046;6.314;2022-07-22T03:15:38;13.97;;;5.57;;
10851;SDS011;5479;52.046;6.314;2022-07-22T03:18:06;10.17;;;5.10;;
10851;SDS011;5479;52.046;6.314;2022-07-22T03:20:34;8.63;;;5.40;;
10851;SDS011;5479;52.046;6.314;2022-07-22T03:23:03;11.63;;;5.23;;
10851;SDS011;5479;52.046;6.314;2022-07-22T03:25:31;10.23;;;5.17;;
10851;SDS011;5479;52.046;6.314;2022-07-22T03:28:00;10.30;;;5.57;;
10851;SDS011;5479;52.046;6.314;2022-07-22T03:30:28;10.63;;;5.17;;
10851;SDS011;5479;52.046;6.314;2022-07-22T03:32:56;10.17;;;5.30;;
10851;SDS011;5479;52.046;6.314;2022-07-22T03:35:24;13.23;;;5.57;;
10851;SDS011;5479;52.046;6.314;2022-07-22T03:37:51;9.63;;;4.80;;
10851;SDS011;5479;52.046;6.314;2022-07-22T03:40:21;10.90;;;5.67;;
10851;SDS011;5479;52.046;6.314;2022-07-22T03:42:49;9.93;;;5.43;;
10851;SDS011;5479;52.046;6.314;2022-07-22T03:45:16;11.30;;;5.73;;
10851;SDS011;5479;52.046;6.314;2022-07-22T03:47:44;9.10;;;5.23;;
10851;SDS011;5479;52.046;6.314;2022-07-22T03:50:12;12.73;;;7.33;;
10851;SDS011;5479;52.046;6.314;2022-07-22T03:52:40;10.40;;;5.30;;
10851;SDS011;5479;52.046;6.314;2022-07-22T03:55:08;10.00;;;5.53;;
10851;SDS011;5479;52.046;6.314;2022-07-22T03:57:37;9.97;;;5.20;;
10851;SDS011;5479;52.046;6.314;2022-07-22T04:00:05;11.27;;;5.40;;
10851;SDS011;5479;52.046;6.314;2022-07-22T04:02:34;8.13;;;5.17;;
10851;SDS011;5479;52.046;6.314;2022-07-22T04:05:02;9.40;;;5.20;;
10851;SDS011;5479;52.046;6.314;2022-07-22T04:07:30;10.10;;;5.13;;
10851;SDS011;5479;52.046;6.314;2022-07-22T04:09:58;10.87;;;5.43;;
10851;SDS011;5479;52.046;6.314;2022-07-22T04:12:32;10.50;;;5.50;;
10851;SDS011;5479;52.046;6.314;2022-07-22T04:15:03;10.77;;;5.40;;
10851;SDS011;5479;52.046;6.314;2022-07-22T04:17:32;15.93;;;5.80;;
10851;SDS011;5479;52.046;6.314;2022-07-22T04:20:00;12.70;;;5.97;;
10851;SDS011;5479;52.046;6.314;2022-07-22T04:22:28;12.73;;;5.83;;
10851;SDS011;5479;52.046;6.314;2022-07-22T04:24:57;11.57;;;5.43;;
10851;SDS011;5479;52.046;6.314;2022-07-22T04:27:25;14.30;;;5.90;;
10851;SDS011;5479;52.046;6.314;2022-07-22T04:29:53;10.83;;;5.40;;
10851;SDS011;5479;52.046;6.314;2022-07-22T04:32:22;10.33;;;5.30;;
10851;SDS011;5479;52.046;6.314;2022-07-22T04:34:50;9.67;;;5.60;;
10851;SDS011;5479;52.046;6.314;2022-07-22T04:37:21;10.33;;;5.77;;
10851;SDS011;5479;52.046;6.314;2022-07-22T04:39:49;11.67;;;5.70;;
10851;SDS011;5479;52.046;6.314;2022-07-22T04:42:16;9.97;;;5.37;;
10851;SDS011;5479;52.046;6.314;2022-07-22T04:44:44;9.60;;;5.30;;
10851;SDS011;5479;52.046;6.314;2022-07-22T04:47:13;11.83;;;5.80;;
10851;SDS011;5479;52.046;6.314;2022-07-22T04:49:42;11.73;;;5.47;;
10851;SDS011;5479;52.046;6.314;2022-07-22T04:52:10;7.87;;;5.20;;
10851;SDS011;5479;52.046;6.314;2022-07-22T04:54:38;8.03;;;4.90;;
10851;SDS011;5479;52.046;6.314;2022-07-22T04:57:06;10.20;;;5.70;;
10851;SDS011;5479;52.046;6.314;2022-07-22T04:59:33;10.57;;;4.77;;
10851;SDS011;5479;52.046;6.314;2022-07-22T05:02:01;10.23;;;5.23;;
10851;SDS011;5479;52.046;6.314;2022-07-22T05:04:29;9.70;;;5.20;;
10851;SDS011;5479;52.046;6.314;2022-07-22T05:06:58;10.23;;;5.73;;
10851;SDS011;5479;52.046;6.314;2022-07-22T05:09:26;12.57;;;5.50;;
10851;SDS011;5479;52.046;6.314;2022-07-22T05:11:54;9.00;;;4.53;;
10851;SDS011;5479;52.046;6.314;2022-07-22T05:14:22;7.47;;;4.80;;
10851;SDS011;5479;52.046;6.314;2022-07-22T05:16:50;10.37;;;5.20;;
10851;SDS011;5479;52.046;6.314;2022-07-22T05:19:18;11.43;;;5.40;;
10851;SDS011;5479;52.046;6.314;2022-07-22T05:21:45;9.17;;;4.70;;
10851;SDS011;5479;52.046;6.314;2022-07-22T05:24:15;9.83;;;5.20;;
10851;SDS011;5479;52.046;6.314;2022-07-22T05:26:42;6.93;;;4.47;;
10851;SDS011;5479;52.046;6.314;2022-07-22T05:29:10;10.90;;;4.70;;
10851;SDS011;5479;52.046;6.314;2022-07-22T05:31:38;10.80;;;4.63;;
10851;SDS011;5479;52.046;6.314;2022-07-22T05:34:06;13.73;;;5.40;;
10851;SDS011;5479;52.046;6.314;2022-07-22T05:36:34;11.90;;;5.13;;
10851;SDS011;5479;52.046;6.314;2022-07-22T05:39:02;9.20;;;4.67;;
10851;SDS011;5479;52.046;6.314;2022-07-22T05:41:31;10.20;;;4.47;;
10851;SDS011;5479;52.046;6.314;2022-07-22T05:43:59;8.00;;;4.33;;
10851;SDS011;5479;52.046;6.314;2022-07-22T05:46:27;8.73;;;4.40;;
10851;SDS011;5479;52.046;6.314;2022-07-22T05:48:55;9.57;;;4.33;;
10851;SDS011;5479;52.046;6.314;2022-07-22T05:51:22;8.83;;;4.50;;
10851;SDS011;5479;52.046;6.314;2022-07-22T05:53:52;10.73;;;4.97;;
10851;SDS011;5479;52.046;6.314;2022-07-22T05:56:20;10.60;;;4.60;;
10851;SDS011;5479;52.046;6.314;2022-07-22T05:58:49;12.37;;;4.60;;
10851;SDS011;5479;52.046;6.314;2022-07-22T06:01:17;9.17;;;4.70;;
10851;SDS011;5479;52.046;6.314;2022-07-22T06:03:44;10.57;;;4.60;;
10851;SDS011;5479;52.046;6.314;2022-07-22T06:06:12;9.03;;;4.60;;
10851;SDS011;5479;52.046;6.314;2022-07-22T06:08:40;9.33;;;4.90;;
10851;SDS011;5479;52.046;6.314;2022-07-22T06:11:08;8.70;;;4.03;;
10851;SDS011;5479;52.046;6.314;2022-07-22T06:13:37;10.83;;;4.47;;
10851;SDS011;5479;52.046;6.314;2022-07-22T06:16:07;8.00;;;4.50;;
10851;SDS011;5479;52.046;6.314;2022-07-22T06:18:34;8.03;;;3.80;;
10851;SDS011;5479;52.046;6.314;2022-07-22T06:21:03;7.20;;;4.10;;
10851;SDS011;5479;52.046;6.314;2022-07-22T06:23:31;8.47;;;3.90;;
10851;SDS011;5479;52.046;6.314;2022-07-22T06:25:59;7.47;;;3.77;;
10851;SDS011;5479;52.046;6.314;2022-07-22T06:28:27;10.45;;;3.95;;
10851;SDS011;5479;52.046;6.314;2022-07-22T06:30:55;11.60;;;3.77;;
10851;SDS011;5479;52.046;6.314;2022-07-22T06:33:24;9.20;;;3.70;;
10851;SDS011;5479;52.046;6.314;2022-07-22T06:35:52;8.63;;;3.80;;
10851;SDS011;5479;52.046;6.314;2022-07-22T06:38:20;9.27;;;4.17;;
10851;SDS011;5479;52.046;6.314;2022-07-22T06:40:48;9.80;;;3.80;;
10851;SDS011;5479;52.046;6.314;2022-07-22T06:43:16;9.10;;;3.77;;
10851;SDS011;5479;52.046;6.314;2022-07-22T06:45:43;10.80;;;3.95;;
10851;SDS011;5479;52.046;6.314;2022-07-22T06:48:11;9.00;;;3.38;;
10851;SDS011;5479;52.046;6.314;2022-07-22T06:50:40;7.77;;;3.13;;
10851;SDS011;5479;52.046;6.314;2022-07-22T06:53:08;8.02;;;3.13;;
10851;SDS011;5479;52.046;6.314;2022-07-22T06:55:36;10.48;;;3.80;;
10851;SDS011;5479;52.046;6.314;2022-07-22T06:58:04;10.43;;;3.75;;
10851;SDS011;5479;52.046;6.314;2022-07-22T07:00:32;7.57;;;3.35;;
10851;SDS011;5479;52.046;6.314;2022-07-22T07:03:00;10.40;;;3.53;;
10851;SDS011;5479;52.046;6.314;2022-07-22T07:05:28;7.72;;;3.30;;
10851;SDS011;5479;52.046;6.314;2022-07-22T07:07:58;8.35;;;3.20;;
10851;SDS011;5479;52.046;6.314;2022-07-22T07:10:25;9.27;;;3.42;;
10851;SDS011;5479;52.046;6.314;2022-07-22T07:12:55;8.98;;;3.03;;
10851;SDS011;5479;52.046;6.314;2022-07-22T07:15:24;9.10;;;3.38;;
10851;SDS011;5479;52.046;6.314;2022-07-22T07:17:52;10.30;;;2.80;;
10851;SDS011;5479;52.046;6.314;2022-07-22T07:20:22;8.45;;;2.85;;
10851;SDS011;5479;52.046;6.314;2022-07-22T07:22:50;6.95;;;3.00;;
10851;SDS011;5479;52.046;6.314;2022-07-22T07:25:20;8.63;;;3.05;;
10851;SDS011;5479;52.046;6.314;2022-07-22T07:27:48;7.88;;;2.80;;
10851;SDS011;5479;52.046;6.314;2022-07-22T07:30:16;5.60;;;2.75;;
10851;SDS011;5479;52.046;6.314;2022-07-22T07:32:44;8.57;;;2.90;;
10851;SDS011;5479;52.046;6.314;2022-07-22T07:35:12;7.13;;;2.80;;
10851;SDS011;5479;52.046;6.314;2022-07-22T07:37:40;4.88;;;2.42;;
10851;SDS011;5479;52.046;6.314;2022-07-22T07:40:09;9.32;;;3.33;;
10851;SDS011;5479;52.046;6.314;2022-07-22T07:42:38;9.45;;;2.65;;
10851;SDS011;5479;52.046;6.314;2022-07-22T07:45:07;8.20;;;2.85;;
10851;SDS011;5479;52.046;6.314;2022-07-22T07:47:35;8.20;;;2.95;;
10851;SDS011;5479;52.046;6.314;2022-07-22T07:50:03;6.15;;;2.65;;
10851;SDS011;5479;52.046;6.314;2022-07-22T07:52:36;7.68;;;2.75;;
10851;SDS011;5479;52.046;6.314;2022-07-22T07:55:05;6.97;;;2.80;;
10851;SDS011;5479;52.046;6.314;2022-07-22T07:57:34;9.38;;;3.10;;
10851;SDS011;5479;52.046;6.314;2022-07-22T08:00:05;7.72;;;2.85;;
10851;SDS011;5479;52.046;6.314;2022-07-22T08:02:36;5.78;;;2.63;;
10851;SDS011;5479;52.046;6.314;2022-07-22T08:05:04;4.97;;;2.40;;
10851;SDS011;5479;52.046;6.314;2022-07-22T08:07:33;6.47;;;3.00;;
10851;SDS011;5479;52.046;6.314;2022-07-22T08:10:02;5.97;;;2.85;;
10851;SDS011;5479;52.046;6.314;2022-07-22T08:12:31;8.53;;;2.80;;
10851;SDS011;5479;52.046;6.314;2022-07-22T08:14:58;6.85;;;2.63;;
10851;SDS011;5479;52.046;6.314;2022-07-22T08:17:28;8.18;;;2.47;;
10851;SDS011;5479;52.046;6.314;2022-07-22T08:19:56;5.35;;;2.35;;
10851;SDS011;5479;52.046;6.314;2022-07-22T08:22:23;7.50;;;2.55;;
10851;SDS011;5479;52.046;6.314;2022-07-22T08:24:51;7.23;;;2.10;;
10851;SDS011;5479;52.046;6.314;2022-07-22T08:27:20;5.50;;;2.30;;
10851;SDS011;5479;52.046;6.314;2022-07-22T08:29:48;5.35;;;2.33;;
10851;SDS011;5479;52.046;6.314;2022-07-22T08:32:16;6.25;;;2.22;;
10851;SDS011;5479;52.046;6.314;2022-07-22T08:34:45;5.07;;;2.20;;
10851;SDS011;5479;52.046;6.314;2022-07-22T08:37:13;6.57;;;2.40;;
10851;SDS011;5479;52.046;6.314;2022-07-22T08:39:41;6.30;;;2.17;;
10851;SDS011;5479;52.046;6.314;2022-07-22T08:42:08;8.02;;;2.90;;
10851;SDS011;5479;52.046;6.314;2022-07-22T08:44:36;8.35;;;3.00;;
10851;SDS011;5479;52.046;6.314;2022-07-22T08:47:04;6.78;;;2.78;;
10851;SDS011;5479;52.046;6.314;2022-07-22T08:49:32;7.78;;;2.50;;
10851;SDS011;5479;52.046;6.314;2022-07-22T08:52:02;7.10;;;2.40;;
10851;SDS011;5479;52.046;6.314;2022-07-22T08:54:29;7.33;;;2.60;;
10851;SDS011;5479;52.046;6.314;2022-07-22T08:56:57;5.83;;;2.40;;
10851;SDS011;5479;52.046;6.314;2022-07-22T08:59:25;7.80;;;2.75;;
10851;SDS011;5479;52.046;6.314;2022-07-22T09:02:03;5.25;;;2.38;;
10851;SDS011;5479;52.046;6.314;2022-07-22T09:04:32;4.90;;;2.30;;
10851;SDS011;5479;52.046;6.314;2022-07-22T09:07:24;5.53;;;2.50;;
10851;SDS011;5479;52.046;6.314;2022-07-22T09:09:52;7.47;;;2.70;;
10851;SDS011;5479;52.046;6.314;2022-07-22T09:12:20;8.05;;;2.40;;
10851;SDS011;5479;52.046;6.314;2022-07-22T09:14:49;6.32;;;2.70;;
10851;SDS011;5479;52.046;6.314;2022-07-22T09:17:21;6.53;;;2.42;;
10851;SDS011;5479;52.046;6.314;2022-07-22T09:19:50;6.63;;;2.60;;
10851;SDS011;5479;52.046;6.314;2022-07-22T09:22:31;6.28;;;2.53;;
10851;SDS011;5479;52.046;6.314;2022-07-22T09:25:02;8.23;;;2.67;;
10851;SDS011;5479;52.046;6.314;2022-07-22T09:27:45;5.05;;;2.42;;
10851;SDS011;5479;52.046;6.314;2022-07-22T09:30:13;5.45;;;2.30;;
10851;SDS011;5479;52.046;6.314;2022-07-22T09:32:43;5.80;;;2.50;;
10851;SDS011;5479;52.046;6.314;2022-07-22T09:35:11;6.53;;;2.95;;
10851;SDS011;5479;52.046;6.314;2022-07-22T09:37:48;7.85;;;2.50;;
10851;SDS011;5479;52.046;6.314;2022-07-22T09:40:20;5.93;;;3.00;;
10851;SDS011;5479;52.046;6.314;2022-07-22T09:42:51;7.18;;;2.70;;
10851;SDS011;5479;52.046;6.314;2022-07-22T09:45:22;8.40;;;2.90;;
10851;SDS011;5479;52.046;6.314;2022-07-22T09:47:53;7.60;;;2.83;;
10851;SDS011;5479;52.046;6.314;2022-07-22T09:50:22;7.18;;;3.10;;
10851;SDS011;5479;52.046;6.314;2022-07-22T09:52:54;5.72;;;2.85;;
10851;SDS011;5479;52.046;6.314;2022-07-22T09:55:24;5.63;;;2.60;;
10851;SDS011;5479;52.046;6.314;2022-07-22T09:57:54;5.85;;;2.42;;
10851;SDS011;5479;52.046;6.314;2022-07-22T10:00:24;4.63;;;2.40;;
10851;SDS011;5479;52.046;6.314;2022-07-22T10:02:55;7.40;;;3.00;;
10851;SDS011;5479;52.046;6.314;2022-07-22T10:05:24;4.97;;;2.42;;
10851;SDS011;5479;52.046;6.314;2022-07-22T10:07:54;3.83;;;2.10;;
10851;SDS011;5479;52.046;6.314;2022-07-22T10:10:23;6.28;;;2.05;;
10851;SDS011;5479;52.046;6.314;2022-07-22T10:12:53;4.72;;;2.38;;
10851;SDS011;5479;52.046;6.314;2022-07-22T10:15:22;4.72;;;2.50;;
10851;SDS011;5479;52.046;6.314;2022-07-22T10:17:52;8.60;;;2.65;;
10851;SDS011;5479;52.046;6.314;2022-07-22T10:20:22;7.53;;;2.30;;
10851;SDS011;5479;52.046;6.314;2022-07-22T10:22:53;5.65;;;2.47;;
10851;SDS011;5479;52.046;6.314;2022-07-22T10:25:23;6.53;;;2.42;;
10851;SDS011;5479;52.046;6.314;2022-07-22T10:27:55;4.30;;;2.30;;
10851;SDS011;5479;52.046;6.314;2022-07-22T10:30:25;4.57;;;2.38;;
10851;SDS011;5479;52.046;6.314;2022-07-22T10:33:05;5.15;;;2.33;;
10851;SDS011;5479;52.046;6.314;2022-07-22T10:35:49;6.47;;;2.70;;
10851;SDS011;5479;52.046;6.314;2022-07-22T10:38:22;4.47;;;2.30;;
10851;SDS011;5479;52.046;6.314;2022-07-22T10:40:52;6.97;;;2.58;;
10851;SDS011;5479;52.046;6.314;2022-07-22T10:43:22;5.82;;;2.53;;
10851;SDS011;5479;52.046;6.314;2022-07-22T10:45:53;5.40;;;2.65;;
10851;SDS011;5479;52.046;6.314;2022-07-22T10:48:23;5.40;;;2.28;;
10851;SDS011;5479;52.046;6.314;2022-07-22T10:53:44;8.82;;;2.75;;
10851;SDS011;5479;52.046;6.314;2022-07-22T10:56:18;5.25;;;2.70;;
10851;SDS011;5479;52.046;6.314;2022-07-22T11:01:36;7.22;;;2.35;;
10851;SDS011;5479;52.046;6.314;2022-07-22T11:04:06;7.70;;;2.85;;
10851;SDS011;5479;52.046;6.314;2022-07-22T11:06:36;6.45;;;2.45;;
10851;SDS011;5479;52.046;6.314;2022-07-22T11:09:07;5.03;;;2.40;;
10851;SDS011;5479;52.046;6.314;2022-07-22T11:11:38;6.45;;;2.60;;
10851;SDS011;5479;52.046;6.314;2022-07-22T11:14:20;5.57;;;2.50;;
10851;SDS011;5479;52.046;6.314;2022-07-22T11:16:53;5.90;;;2.33;;
10851;SDS011;5479;52.046;6.314;2022-07-22T11:19:23;4.45;;;2.30;;
10851;SDS011;5479;52.046;6.314;2022-07-22T11:21:53;4.35;;;2.00;;
10851;SDS011;5479;52.046;6.314;2022-07-22T11:24:24;5.43;;;2.55;;
10851;SDS011;5479;52.046;6.314;2022-07-22T11:26:55;5.85;;;2.40;;
10851;SDS011;5479;52.046;6.314;2022-07-22T11:29:25;6.47;;;2.47;;
10851;SDS011;5479;52.046;6.314;2022-07-22T11:31:55;5.70;;;2.85;;
10851;SDS011;5479;52.046;6.314;2022-07-22T11:34:24;4.88;;;2.30;;
10851;SDS011;5479;52.046;6.314;2022-07-22T11:36:53;4.85;;;2.47;;
10851;SDS011;5479;52.046;6.314;2022-07-22T11:39:22;8.80;;;2.85;;
10851;SDS011;5479;52.046;6.314;2022-07-22T11:41:53;6.63;;;2.45;;
10851;SDS011;5479;52.046;6.314;2022-07-22T11:44:22;7.00;;;2.75;;
10851;SDS011;5479;52.046;6.314;2022-07-22T11:46:51;6.57;;;2.83;;
10851;SDS011;5479;52.046;6.314;2022-07-22T11:49:25;6.30;;;2.60;;
10851;SDS011;5479;52.046;6.314;2022-07-22T11:51:53;4.32;;;2.30;;
10851;SDS011;5479;52.046;6.314;2022-07-22T11:54:21;6.63;;;2.70;;
10851;SDS011;5479;52.046;6.314;2022-07-22T11:56:50;6.53;;;3.13;;
10851;SDS011;5479;52.046;6.314;2022-07-22T11:59:19;6.35;;;2.58;;
10851;SDS011;5479;52.046;6.314;2022-07-22T12:01:48;5.25;;;2.22;;
10851;SDS011;5479;52.046;6.314;2022-07-22T12:04:16;4.88;;;2.30;;
10851;SDS011;5479;52.046;6.314;2022-07-22T12:06:46;7.60;;;3.30;;
10851;SDS011;5479;52.046;6.314;2022-07-22T12:09:14;6.10;;;2.58;;
10851;SDS011;5479;52.046;6.314;2022-07-22T12:11:46;5.50;;;2.58;;
10851;SDS011;5479;52.046;6.314;2022-07-22T12:14:17;5.57;;;2.58;;
10851;SDS011;5479;52.046;6.314;2022-07-22T12:16:53;7.88;;;2.65;;
10851;SDS011;5479;52.046;6.314;2022-07-22T12:19:23;4.88;;;2.70;;
10851;SDS011;5479;52.046;6.314;2022-07-22T12:21:56;5.05;;;2.97;;
10851;SDS011;5479;52.046;6.314;2022-07-22T12:24:26;6.47;;;3.20;;
10851;SDS011;5479;52.046;6.314;2022-07-22T12:26:56;6.15;;;3.17;;
10851;SDS011;5479;52.046;6.314;2022-07-22T12:29:27;6.30;;;3.20;;
10851;SDS011;5479;52.046;6.314;2022-07-22T12:31:58;6.05;;;3.00;;
10851;SDS011;5479;52.046;6.314;2022-07-22T12:34:31;7.35;;;3.00;;
10851;SDS011;5479;52.046;6.314;2022-07-22T12:37:01;5.90;;;2.85;;
10851;SDS011;5479;52.046;6.314;2022-07-22T12:39:40;6.25;;;3.00;;
10851;SDS011;5479;52.046;6.314;2022-07-22T12:42:20;6.38;;;2.97;;
10851;SDS011;5479;52.046;6.314;2022-07-22T12:44:53;7.78;;;2.80;;
10851;SDS011;5479;52.046;6.314;2022-07-22T12:47:45;5.32;;;2.63;;
10851;SDS011;5479;52.046;6.314;2022-07-22T12:50:16;5.22;;;3.00;;
10851;SDS011;5479;52.046;6.314;2022-07-22T12:52:52;5.70;;;3.15;;
10851;SDS011;5479;52.046;6.314;2022-07-22T12:55:22;5.30;;;2.97;;
10851;SDS011;5479;52.046;6.314;2022-07-22T12:57:50;6.35;;;3.22;;
10851;SDS011;5479;52.046;6.314;2022-07-22T13:00:20;5.78;;;2.95;;
10851;SDS011;5479;52.046;6.314;2022-07-22T13:02:49;5.13;;;3.00;;
10851;SDS011;5479;52.046;6.314;2022-07-22T13:05:18;6.45;;;3.10;;
10851;SDS011;5479;52.046;6.314;2022-07-22T13:07:46;6.88;;;3.35;;
10851;SDS011;5479;52.046;6.314;2022-07-22T13:10:14;6.75;;;3.10;;
10851;SDS011;5479;52.046;6.314;2022-07-22T13:12:43;5.00;;;2.80;;
10851;SDS011;5479;52.046;6.314;2022-07-22T13:15:10;5.70;;;3.20;;
10851;SDS011;5479;52.046;6.314;2022-07-22T13:17:40;5.07;;;2.88;;
10851;SDS011;5479;52.046;6.314;2022-07-22T13:20:09;5.65;;;2.88;;
10851;SDS011;5479;52.046;6.314;2022-07-22T13:22:38;4.70;;;2.90;;
10851;SDS011;5479;52.046;6.314;2022-07-22T13:25:07;6.30;;;3.05;;
10851;SDS011;5479;52.046;6.314;2022-07-22T13:27:35;5.60;;;3.10;;
10851;SDS011;5479;52.046;6.314;2022-07-22T13:30:03;5.93;;;2.97;;
10851;SDS011;5479;52.046;6.314;2022-07-22T13:32:32;8.20;;;3.13;;
10851;SDS011;5479;52.046;6.314;2022-07-22T13:35:02;5.88;;;2.75;;
10851;SDS011;5479;52.046;6.314;2022-07-22T13:37:30;5.88;;;2.97;;
10851;SDS011;5479;52.046;6.314;2022-07-22T13:39:58;7.40;;;2.92;;
10851;SDS011;5479;52.046;6.314;2022-07-22T13:42:26;6.43;;;2.92;;
10851;SDS011;5479;52.046;6.314;2022-07-22T13:44:54;7.55;;;3.08;;
10851;SDS011;5479;52.046;6.314;2022-07-22T13:47:22;5.40;;;3.03;;
10851;SDS011;5479;52.046;6.314;2022-07-22T13:49:50;6.50;;;4.07;;
10851;SDS011;5479;52.046;6.314;2022-07-22T13:52:19;6.50;;;3.60;;
10851;SDS011;5479;52.046;6.314;2022-07-22T13:54:47;7.22;;;3.03;;
10851;SDS011;5479;52.046;6.314;2022-07-22T13:57:16;6.68;;;3.63;;
10851;SDS011;5479;52.046;6.314;2022-07-22T13:59:43;6.10;;;2.97;;
10851;SDS011;5479;52.046;6.314;2022-07-22T14:02:12;4.95;;;3.10;;
10851;SDS011;5479;52.046;6.314;2022-07-22T14:04:40;4.82;;;2.83;;
10851;SDS011;5479;52.046;6.314;2022-07-22T14:07:08;5.15;;;2.83;;
10851;SDS011;5479;52.046;6.314;2022-07-22T14:09:37;5.70;;;3.08;;
10851;SDS011;5479;52.046;6.314;2022-07-22T14:12:05;7.15;;;3.25;;
10851;SDS011;5479;52.046;6.314;2022-07-22T14:14:34;7.20;;;3.47;;
10851;SDS011;5479;52.046;6.314;2022-07-22T14:17:02;5.90;;;3.42;;
10851;SDS011;5479;52.046;6.314;2022-07-22T14:19:30;6.28;;;3.30;;
10851;SDS011;5479;52.046;6.314;2022-07-22T14:21:58;5.72;;;3.42;;
10851;SDS011;5479;52.046;6.314;2022-07-22T14:24:25;5.50;;;3.08;;
10851;SDS011;5479;52.046;6.314;2022-07-22T14:26:55;5.75;;;3.20;;
10851;SDS011;5479;52.046;6.314;2022-07-22T14:29:22;4.70;;;2.55;;
10851;SDS011;5479;52.046;6.314;2022-07-22T14:31:50;5.15;;;3.20;;
10851;SDS011;5479;52.046;6.314;2022-07-22T14:34:18;6.20;;;2.65;;
10851;SDS011;5479;52.046;6.314;2022-07-22T14:36:46;5.70;;;3.13;;
10851;SDS011;5479;52.046;6.314;2022-07-22T14:39:14;6.13;;;3.42;;
10851;SDS011;5479;52.046;6.314;2022-07-22T14:41:42;7.03;;;3.67;;
10851;SDS011;5479;52.046;6.314;2022-07-22T14:44:13;4.57;;;2.85;;
10851;SDS011;5479;52.046;6.314;2022-07-22T14:46:41;5.18;;;2.80;;
10851;SDS011;5479;52.046;6.314;2022-07-22T14:49:09;5.35;;;2.53;;
10851;SDS011;5479;52.046;6.314;2022-07-22T14:51:37;6.47;;;3.15;;
10851;SDS011;5479;52.046;6.314;2022-07-22T14:54:05;7.10;;;2.88;;
10851;SDS011;5479;52.046;6.314;2022-07-22T14:56:35;6.10;;;3.20;;
10851;SDS011;5479;52.046;6.314;2022-07-22T14:59:03;7.05;;;3.15;;
10851;SDS011;5479;52.046;6.314;2022-07-22T15:01:32;7.80;;;3.05;;
10851;SDS011;5479;52.046;6.314;2022-07-22T15:04:00;7.00;;;3.13;;
10851;SDS011;5479;52.046;6.314;2022-07-22T15:06:28;6.68;;;2.80;;
10851;SDS011;5479;52.046;6.314;2022-07-22T15:08:56;5.38;;;3.10;;
10851;SDS011;5479;52.046;6.314;2022-07-22T15:11:24;7.47;;;3.15;;
10851;SDS011;5479;52.046;6.314;2022-07-22T15:13:52;4.90;;;3.00;;